sensor_id;sensor_type;location;lat;lon;timestamp;P1;durP1;ratioP1;P2;durP2;ratioP2
76863;SDS011;65834;52.364;9.754;2023-03-01T00:00:27;17.20;;;6.80;;
76863;SDS011;65834;52.364;9.754;2023-03-01T00:02:56;15.50;;;7.30;;
76863;SDS011;65834;52.364;9.754;2023-03-01T00:05:29;14.10;;;6.50;;
76863;SDS011;65834;52.364;9.754;2023-03-01T00:07:58;15.05;;;6.47;;
76863;SDS011;65834;52.364;9.754;2023-03-01T00:10:28;15.20;;;6.90;;
76863;SDS011;65834;52.364;9.754;2023-03-01T00:12:57;14.80;;;7.33;;
76863;SDS011;65834;52.364;9.754;2023-03-01T00:15:27;17.07;;;7.50;;
76863;SDS011;65834;52.364;9.754;2023-03-01T00:17:56;16.57;;;7.13;;
76863;SDS011;65834;52.364;9.754;2023-03-01T00:20:28;17.37;;;7.37;;
76863;SDS011;65834;52.364;9.754;2023-03-01T00:22:58;20.15;;;8.32;;
76863;SDS011;65834;52.364;9.754;2023-03-01T00:25:27;15.83;;;7.60;;
76863;SDS011;65834;52.364;9.754;2023-03-01T00:27:57;14.73;;;7.37;;
76863;SDS011;65834;52.364;9.754;2023-03-01T00:30:26;16.53;;;6.83;;
76863;SDS011;65834;52.364;9.754;2023-03-01T00:32:56;14.07;;;7.10;;
76863;SDS011;65834;52.364;9.754;2023-03-01T00:35:25;14.23;;;7.17;;
76863;SDS011;65834;52.364;9.754;2023-03-01T00:37:57;16.07;;;6.67;;
76863;SDS011;65834;52.364;9.754;2023-03-01T00:40:28;15.77;;;7.33;;
76863;SDS011;65834;52.364;9.754;2023-03-01T00:42:58;15.80;;;6.90;;
76863;SDS011;65834;52.364;9.754;2023-03-01T00:45:28;16.10;;;7.87;;
76863;SDS011;65834;52.364;9.754;2023-03-01T00:47:57;16.47;;;6.87;;
76863;SDS011;65834;52.364;9.754;2023-03-01T00:50:27;17.20;;;6.80;;
76863;SDS011;65834;52.364;9.754;2023-03-01T00:52:59;17.07;;;7.27;;
76863;SDS011;65834;52.364;9.754;2023-03-01T00:55:28;14.90;;;6.72;;
76863;SDS011;65834;52.364;9.754;2023-03-01T00:57:58;15.97;;;7.60;;
76863;SDS011;65834;52.364;9.754;2023-03-01T01:00:27;15.93;;;6.60;;
76863;SDS011;65834;52.364;9.754;2023-03-01T01:02:57;15.03;;;6.37;;
76863;SDS011;65834;52.364;9.754;2023-03-01T01:05:26;15.67;;;7.67;;
76863;SDS011;65834;52.364;9.754;2023-03-01T01:07:59;14.70;;;7.23;;
76863;SDS011;65834;52.364;9.754;2023-03-01T01:10:29;14.50;;;6.25;;
76863;SDS011;65834;52.364;9.754;2023-03-01T01:12:59;14.17;;;6.67;;
76863;SDS011;65834;52.364;9.754;2023-03-01T01:15:28;16.17;;;6.70;;
76863;SDS011;65834;52.364;9.754;2023-03-01T01:18:02;16.33;;;7.63;;
76863;SDS011;65834;52.364;9.754;2023-03-01T01:20:31;14.97;;;6.17;;
76863;SDS011;65834;52.364;9.754;2023-03-01T01:23:04;14.33;;;6.97;;
76863;SDS011;65834;52.364;9.754;2023-03-01T01:25:34;15.17;;;6.47;;
76863;SDS011;65834;52.364;9.754;2023-03-01T01:28:04;13.20;;;6.77;;
76863;SDS011;65834;52.364;9.754;2023-03-01T01:30:34;16.83;;;7.20;;
76863;SDS011;65834;52.364;9.754;2023-03-01T01:33:03;15.33;;;6.50;;
76863;SDS011;65834;52.364;9.754;2023-03-01T01:35:33;15.03;;;6.90;;
76863;SDS011;65834;52.364;9.754;2023-03-01T01:38:08;14.50;;;6.35;;
76863;SDS011;65834;52.364;9.754;2023-03-01T01:40:42;14.25;;;6.47;;
76863;SDS011;65834;52.364;9.754;2023-03-01T01:43:15;14.50;;;6.77;;
76863;SDS011;65834;52.364;9.754;2023-03-01T01:45:48;13.87;;;6.33;;
76863;SDS011;65834;52.364;9.754;2023-03-01T01:48:19;16.47;;;7.07;;
76863;SDS011;65834;52.364;9.754;2023-03-01T01:50:53;15.25;;;7.38;;
76863;SDS011;65834;52.364;9.754;2023-03-01T01:53:30;15.43;;;7.03;;
76863;SDS011;65834;52.364;9.754;2023-03-01T01:56:00;14.18;;;6.60;;
76863;SDS011;65834;52.364;9.754;2023-03-01T01:58:32;15.20;;;6.78;;
76863;SDS011;65834;52.364;9.754;2023-03-01T02:01:01;14.40;;;6.60;;
76863;SDS011;65834;52.364;9.754;2023-03-01T02:03:32;14.07;;;6.77;;
76863;SDS011;65834;52.364;9.754;2023-03-01T02:06:11;14.57;;;6.07;;
76863;SDS011;65834;52.364;9.754;2023-03-01T02:08:49;14.10;;;6.20;;
76863;SDS011;65834;52.364;9.754;2023-03-01T02:11:21;13.63;;;5.67;;
76863;SDS011;65834;52.364;9.754;2023-03-01T02:13:52;16.27;;;6.60;;
76863;SDS011;65834;52.364;9.754;2023-03-01T02:16:23;14.00;;;6.50;;
76863;SDS011;65834;52.364;9.754;2023-03-01T02:18:56;18.70;;;6.82;;
76863;SDS011;65834;52.364;9.754;2023-03-01T02:21:30;14.43;;;5.97;;
76863;SDS011;65834;52.364;9.754;2023-03-01T02:24:13;15.40;;;6.40;;
76863;SDS011;65834;52.364;9.754;2023-03-01T02:26:54;13.27;;;5.93;;
76863;SDS011;65834;52.364;9.754;2023-03-01T02:29:27;14.73;;;6.53;;
76863;SDS011;65834;52.364;9.754;2023-03-01T02:31:58;13.30;;;5.90;;
76863;SDS011;65834;52.364;9.754;2023-03-01T02:37:01;14.13;;;5.53;;
76863;SDS011;65834;52.364;9.754;2023-03-01T02:39:33;14.17;;;6.30;;
76863;SDS011;65834;52.364;9.754;2023-03-01T02:42:09;14.00;;;6.00;;
76863;SDS011;65834;52.364;9.754;2023-03-01T02:44:44;12.93;;;5.63;;
76863;SDS011;65834;52.364;9.754;2023-03-01T02:49:44;13.90;;;6.50;;
76863;SDS011;65834;52.364;9.754;2023-03-01T02:52:17;15.97;;;6.53;;
76863;SDS011;65834;52.364;9.754;2023-03-01T02:54:58;13.07;;;5.03;;
76863;SDS011;65834;52.364;9.754;2023-03-01T02:57:32;14.13;;;6.47;;
76863;SDS011;65834;52.364;9.754;2023-03-01T03:00:07;12.73;;;5.93;;
76863;SDS011;65834;52.364;9.754;2023-03-01T03:02:46;13.60;;;5.45;;
76863;SDS011;65834;52.364;9.754;2023-03-01T03:05:18;14.73;;;5.83;;
76863;SDS011;65834;52.364;9.754;2023-03-01T03:07:52;14.40;;;6.10;;
76863;SDS011;65834;52.364;9.754;2023-03-01T03:10:23;14.50;;;6.13;;
76863;SDS011;65834;52.364;9.754;2023-03-01T03:12:56;13.90;;;6.40;;
76863;SDS011;65834;52.364;9.754;2023-03-01T03:15:30;14.45;;;6.10;;
76863;SDS011;65834;52.364;9.754;2023-03-01T03:18:03;15.53;;;7.00;;
76863;SDS011;65834;52.364;9.754;2023-03-01T03:20:33;15.57;;;6.67;;
76863;SDS011;65834;52.364;9.754;2023-03-01T03:23:04;13.80;;;6.30;;
76863;SDS011;65834;52.364;9.754;2023-03-01T03:25:33;15.73;;;6.60;;
76863;SDS011;65834;52.364;9.754;2023-03-01T03:28:04;15.10;;;6.70;;
76863;SDS011;65834;52.364;9.754;2023-03-01T03:30:39;15.73;;;6.63;;
76863;SDS011;65834;52.364;9.754;2023-03-01T03:33:09;15.00;;;6.43;;
76863;SDS011;65834;52.364;9.754;2023-03-01T03:35:41;15.40;;;6.63;;
76863;SDS011;65834;52.364;9.754;2023-03-01T03:38:12;15.40;;;6.57;;
76863;SDS011;65834;52.364;9.754;2023-03-01T03:40:46;16.90;;;6.73;;
76863;SDS011;65834;52.364;9.754;2023-03-01T03:43:17;16.50;;;6.67;;
76863;SDS011;65834;52.364;9.754;2023-03-01T03:45:50;15.23;;;6.70;;
76863;SDS011;65834;52.364;9.754;2023-03-01T03:48:20;15.48;;;6.05;;
76863;SDS011;65834;52.364;9.754;2023-03-01T03:50:50;15.57;;;6.80;;
76863;SDS011;65834;52.364;9.754;2023-03-01T03:53:21;13.90;;;6.10;;
76863;SDS011;65834;52.364;9.754;2023-03-01T03:55:53;13.87;;;6.57;;
76863;SDS011;65834;52.364;9.754;2023-03-01T03:58:23;14.83;;;7.40;;
76863;SDS011;65834;52.364;9.754;2023-03-01T04:00:56;16.60;;;6.50;;
76863;SDS011;65834;52.364;9.754;2023-03-01T04:03:27;15.73;;;6.13;;
76863;SDS011;65834;52.364;9.754;2023-03-01T04:05:58;15.27;;;6.87;;
76863;SDS011;65834;52.364;9.754;2023-03-01T04:08:29;15.43;;;7.17;;
76863;SDS011;65834;52.364;9.754;2023-03-01T04:10:59;18.77;;;7.17;;
76863;SDS011;65834;52.364;9.754;2023-03-01T04:13:51;17.13;;;6.55;;
76863;SDS011;65834;52.364;9.754;2023-03-01T04:16:25;14.18;;;6.53;;
76863;SDS011;65834;52.364;9.754;2023-03-01T04:18:56;16.23;;;7.00;;
76863;SDS011;65834;52.364;9.754;2023-03-01T04:21:26;16.20;;;7.40;;
76863;SDS011;65834;52.364;9.754;2023-03-01T04:23:55;15.23;;;6.77;;
76863;SDS011;65834;52.364;9.754;2023-03-01T04:26:25;13.60;;;6.83;;
76863;SDS011;65834;52.364;9.754;2023-03-01T04:28:55;16.03;;;6.57;;
76863;SDS011;65834;52.364;9.754;2023-03-01T04:31:27;15.57;;;7.40;;
76863;SDS011;65834;52.364;9.754;2023-03-01T04:33:56;14.02;;;6.97;;
76863;SDS011;65834;52.364;9.754;2023-03-01T04:36:27;14.93;;;6.63;;
76863;SDS011;65834;52.364;9.754;2023-03-01T04:38:58;15.32;;;8.48;;
76863;SDS011;65834;52.364;9.754;2023-03-01T04:41:39;16.17;;;6.90;;
76863;SDS011;65834;52.364;9.754;2023-03-01T04:44:09;14.97;;;7.27;;
76863;SDS011;65834;52.364;9.754;2023-03-01T04:46:42;14.53;;;6.87;;
76863;SDS011;65834;52.364;9.754;2023-03-01T04:49:12;13.23;;;6.57;;
76863;SDS011;65834;52.364;9.754;2023-03-01T04:51:42;15.40;;;8.10;;
76863;SDS011;65834;52.364;9.754;2023-03-01T04:54:12;15.50;;;6.97;;
76863;SDS011;65834;52.364;9.754;2023-03-01T04:56:41;15.50;;;7.17;;
76863;SDS011;65834;52.364;9.754;2023-03-01T04:59:10;15.77;;;6.33;;
76863;SDS011;65834;52.364;9.754;2023-03-01T05:01:43;16.27;;;8.07;;
76863;SDS011;65834;52.364;9.754;2023-03-01T05:04:12;16.80;;;7.82;;
76863;SDS011;65834;52.364;9.754;2023-03-01T05:06:42;14.70;;;7.17;;
76863;SDS011;65834;52.364;9.754;2023-03-01T05:09:12;16.60;;;7.63;;
76863;SDS011;65834;52.364;9.754;2023-03-01T05:11:42;15.43;;;7.70;;
76863;SDS011;65834;52.364;9.754;2023-03-01T05:14:11;15.90;;;7.40;;
76863;SDS011;65834;52.364;9.754;2023-03-01T05:16:43;14.77;;;7.33;;
76863;SDS011;65834;52.364;9.754;2023-03-01T05:19:13;15.93;;;7.63;;
76863;SDS011;65834;52.364;9.754;2023-03-01T05:21:49;15.67;;;6.47;;
76863;SDS011;65834;52.364;9.754;2023-03-01T05:24:31;17.07;;;7.37;;
76863;SDS011;65834;52.364;9.754;2023-03-01T05:27:02;16.47;;;7.53;;
76863;SDS011;65834;52.364;9.754;2023-03-01T05:29:32;16.03;;;7.60;;
76863;SDS011;65834;52.364;9.754;2023-03-01T05:32:04;15.30;;;7.10;;
76863;SDS011;65834;52.364;9.754;2023-03-01T05:34:35;16.63;;;7.53;;
76863;SDS011;65834;52.364;9.754;2023-03-01T05:37:05;15.87;;;7.27;;
76863;SDS011;65834;52.364;9.754;2023-03-01T05:39:35;15.83;;;7.20;;
76863;SDS011;65834;52.364;9.754;2023-03-01T05:42:05;15.30;;;6.90;;
76863;SDS011;65834;52.364;9.754;2023-03-01T05:44:35;15.03;;;7.53;;
76863;SDS011;65834;52.364;9.754;2023-03-01T05:47:07;14.83;;;7.40;;
76863;SDS011;65834;52.364;9.754;2023-03-01T05:49:36;15.32;;;7.45;;
76863;SDS011;65834;52.364;9.754;2023-03-01T05:52:06;18.00;;;8.00;;
76863;SDS011;65834;52.364;9.754;2023-03-01T05:54:35;17.27;;;8.50;;
76863;SDS011;65834;52.364;9.754;2023-03-01T05:57:05;16.77;;;8.77;;
76863;SDS011;65834;52.364;9.754;2023-03-01T05:59:35;18.10;;;7.63;;
76863;SDS011;65834;52.364;9.754;2023-03-01T06:02:07;17.27;;;8.13;;
76863;SDS011;65834;52.364;9.754;2023-03-01T06:04:36;15.45;;;7.55;;
76863;SDS011;65834;52.364;9.754;2023-03-01T06:07:06;16.70;;;8.17;;
76863;SDS011;65834;52.364;9.754;2023-03-01T06:09:36;20.33;;;8.17;;
76863;SDS011;65834;52.364;9.754;2023-03-01T06:12:05;20.37;;;8.50;;
76863;SDS011;65834;52.364;9.754;2023-03-01T06:14:35;17.03;;;9.20;;
76863;SDS011;65834;52.364;9.754;2023-03-01T06:17:07;17.47;;;8.30;;
76863;SDS011;65834;52.364;9.754;2023-03-01T06:19:36;16.85;;;8.73;;
76863;SDS011;65834;52.364;9.754;2023-03-01T06:22:06;17.23;;;8.50;;
76863;SDS011;65834;52.364;9.754;2023-03-01T06:24:36;16.70;;;8.20;;
76863;SDS011;65834;52.364;9.754;2023-03-01T06:27:05;18.43;;;8.30;;
76863;SDS011;65834;52.364;9.754;2023-03-01T06:29:35;19.77;;;8.90;;
76863;SDS011;65834;52.364;9.754;2023-03-01T06:32:09;16.30;;;8.20;;
76863;SDS011;65834;52.364;9.754;2023-03-01T06:34:39;16.42;;;8.00;;
76863;SDS011;65834;52.364;9.754;2023-03-01T06:37:08;17.73;;;8.17;;
76863;SDS011;65834;52.364;9.754;2023-03-01T06:39:38;18.90;;;8.93;;
76863;SDS011;65834;52.364;9.754;2023-03-01T06:42:08;16.97;;;8.30;;
76863;SDS011;65834;52.364;9.754;2023-03-01T06:44:38;17.03;;;8.00;;
76863;SDS011;65834;52.364;9.754;2023-03-01T06:47:10;17.13;;;8.00;;
76863;SDS011;65834;52.364;9.754;2023-03-01T06:49:40;19.20;;;8.02;;
76863;SDS011;65834;52.364;9.754;2023-03-01T06:52:10;16.13;;;8.77;;
76863;SDS011;65834;52.364;9.754;2023-03-01T06:54:39;18.57;;;8.53;;
76863;SDS011;65834;52.364;9.754;2023-03-01T06:57:09;18.53;;;8.73;;
76863;SDS011;65834;52.364;9.754;2023-03-01T06:59:39;17.77;;;8.10;;
76863;SDS011;65834;52.364;9.754;2023-03-01T07:02:12;18.57;;;8.00;;
76863;SDS011;65834;52.364;9.754;2023-03-01T07:04:42;16.67;;;8.50;;
76863;SDS011;65834;52.364;9.754;2023-03-01T07:07:12;19.90;;;8.93;;
76863;SDS011;65834;52.364;9.754;2023-03-01T07:09:41;17.90;;;8.13;;
76863;SDS011;65834;52.364;9.754;2023-03-01T07:12:11;17.17;;;8.20;;
76863;SDS011;65834;52.364;9.754;2023-03-01T07:14:41;16.67;;;8.63;;
76863;SDS011;65834;52.364;9.754;2023-03-01T07:17:13;18.20;;;8.63;;
76863;SDS011;65834;52.364;9.754;2023-03-01T07:19:42;17.80;;;8.90;;
76863;SDS011;65834;52.364;9.754;2023-03-01T07:22:12;18.63;;;8.27;;
76863;SDS011;65834;52.364;9.754;2023-03-01T07:24:41;17.30;;;8.20;;
76863;SDS011;65834;52.364;9.754;2023-03-01T07:27:11;19.00;;;9.33;;
76863;SDS011;65834;52.364;9.754;2023-03-01T07:29:41;17.23;;;7.40;;
76863;SDS011;65834;52.364;9.754;2023-03-01T07:32:13;17.27;;;8.50;;
76863;SDS011;65834;52.364;9.754;2023-03-01T07:34:42;16.63;;;7.97;;
76863;SDS011;65834;52.364;9.754;2023-03-01T07:37:12;15.27;;;7.60;;
76863;SDS011;65834;52.364;9.754;2023-03-01T07:39:41;16.07;;;7.77;;
76863;SDS011;65834;52.364;9.754;2023-03-01T07:42:11;16.30;;;7.33;;
76863;SDS011;65834;52.364;9.754;2023-03-01T07:44:41;15.63;;;7.57;;
76863;SDS011;65834;52.364;9.754;2023-03-01T07:47:13;14.43;;;6.70;;
76863;SDS011;65834;52.364;9.754;2023-03-01T07:49:42;17.60;;;7.55;;
76863;SDS011;65834;52.364;9.754;2023-03-01T07:52:12;14.83;;;6.40;;
76863;SDS011;65834;52.364;9.754;2023-03-01T07:54:42;15.73;;;7.40;;
76863;SDS011;65834;52.364;9.754;2023-03-01T07:57:12;17.10;;;7.27;;
76863;SDS011;65834;52.364;9.754;2023-03-01T07:59:41;16.80;;;7.03;;
76863;SDS011;65834;52.364;9.754;2023-03-01T08:02:13;18.03;;;7.60;;
76863;SDS011;65834;52.364;9.754;2023-03-01T08:04:43;15.40;;;7.15;;
76863;SDS011;65834;52.364;9.754;2023-03-01T08:07:13;15.20;;;7.20;;
76863;SDS011;65834;52.364;9.754;2023-03-01T08:09:42;15.03;;;7.63;;
76863;SDS011;65834;52.364;9.754;2023-03-01T08:12:12;17.00;;;7.40;;
76863;SDS011;65834;52.364;9.754;2023-03-01T08:14:42;14.57;;;6.70;;
76863;SDS011;65834;52.364;9.754;2023-03-01T08:17:15;14.87;;;7.50;;
76863;SDS011;65834;52.364;9.754;2023-03-01T08:19:45;17.87;;;7.13;;
76863;SDS011;65834;52.364;9.754;2023-03-01T08:22:15;16.17;;;7.53;;
76863;SDS011;65834;52.364;9.754;2023-03-01T08:24:44;17.00;;;8.17;;
76863;SDS011;65834;52.364;9.754;2023-03-01T08:27:14;19.07;;;8.37;;
76863;SDS011;65834;52.364;9.754;2023-03-01T08:29:44;18.37;;;8.13;;
76863;SDS011;65834;52.364;9.754;2023-03-01T08:32:16;17.10;;;7.40;;
76863;SDS011;65834;52.364;9.754;2023-03-01T08:34:46;16.75;;;7.88;;
76863;SDS011;65834;52.364;9.754;2023-03-01T08:37:15;13.93;;;6.70;;
76863;SDS011;65834;52.364;9.754;2023-03-01T08:39:46;16.47;;;7.13;;
76863;SDS011;65834;52.364;9.754;2023-03-01T08:42:16;15.93;;;6.90;;
76863;SDS011;65834;52.364;9.754;2023-03-01T08:44:45;16.47;;;6.57;;
76863;SDS011;65834;52.364;9.754;2023-03-01T08:47:18;13.60;;;6.07;;
76863;SDS011;65834;52.364;9.754;2023-03-01T08:49:48;12.25;;;5.13;;
76863;SDS011;65834;52.364;9.754;2023-03-01T08:52:19;16.80;;;5.83;;
76863;SDS011;65834;52.364;9.754;2023-03-01T08:54:50;12.73;;;4.83;;
76863;SDS011;65834;52.364;9.754;2023-03-01T08:57:20;13.37;;;4.80;;
76863;SDS011;65834;52.364;9.754;2023-03-01T08:59:50;14.27;;;5.33;;
76863;SDS011;65834;52.364;9.754;2023-03-01T09:02:25;13.00;;;5.60;;
76863;SDS011;65834;52.364;9.754;2023-03-01T09:04:54;13.88;;;5.15;;
76863;SDS011;65834;52.364;9.754;2023-03-01T09:07:24;12.57;;;4.77;;
76863;SDS011;65834;52.364;9.754;2023-03-01T09:09:55;14.20;;;5.00;;
76863;SDS011;65834;52.364;9.754;2023-03-01T09:12:25;14.83;;;5.37;;
76863;SDS011;65834;52.364;9.754;2023-03-01T09:14:54;15.30;;;5.20;;
76863;SDS011;65834;52.364;9.754;2023-03-01T09:17:26;15.60;;;5.20;;
76863;SDS011;65834;52.364;9.754;2023-03-01T09:19:56;14.75;;;4.97;;
76863;SDS011;65834;52.364;9.754;2023-03-01T09:22:26;13.67;;;5.40;;
76863;SDS011;65834;52.364;9.754;2023-03-01T09:24:55;13.37;;;5.37;;
76863;SDS011;65834;52.364;9.754;2023-03-01T09:27:25;13.90;;;5.13;;
76863;SDS011;65834;52.364;9.754;2023-03-01T09:29:55;13.03;;;5.10;;
76863;SDS011;65834;52.364;9.754;2023-03-01T09:32:28;15.60;;;6.03;;
76863;SDS011;65834;52.364;9.754;2023-03-01T09:34:59;15.70;;;5.17;;
76863;SDS011;65834;52.364;9.754;2023-03-01T09:37:33;17.17;;;4.80;;
76863;SDS011;65834;52.364;9.754;2023-03-01T09:40:04;13.50;;;4.53;;
76863;SDS011;65834;52.364;9.754;2023-03-01T09:42:35;13.55;;;5.05;;
76863;SDS011;65834;52.364;9.754;2023-03-01T09:45:19;14.80;;;4.47;;
76863;SDS011;65834;52.364;9.754;2023-03-01T09:47:57;13.23;;;4.53;;
76863;SDS011;65834;52.364;9.754;2023-03-01T09:50:31;13.67;;;4.73;;
76863;SDS011;65834;52.364;9.754;2023-03-01T09:53:05;12.50;;;4.03;;
76863;SDS011;65834;52.364;9.754;2023-03-01T09:55:42;13.67;;;4.53;;
76863;SDS011;65834;52.364;9.754;2023-03-01T09:58:25;12.00;;;5.13;;
76863;SDS011;65834;52.364;9.754;2023-03-01T10:01:09;13.27;;;5.73;;
76863;SDS011;65834;52.364;9.754;2023-03-01T10:04:52;13.33;;;4.93;;
76863;SDS011;65834;52.364;9.754;2023-03-01T10:08:26;13.37;;;5.47;;
76863;SDS011;65834;52.364;9.754;2023-03-01T10:11:58;14.80;;;5.43;;
76863;SDS011;65834;52.364;9.754;2023-03-01T10:15:33;15.40;;;5.43;;
76863;SDS011;65834;52.364;9.754;2023-03-01T10:19:08;14.07;;;5.47;;
76863;SDS011;65834;52.364;9.754;2023-03-01T10:22:47;14.70;;;4.90;;
76863;SDS011;65834;52.364;9.754;2023-03-01T10:26:23;14.73;;;5.17;;
76863;SDS011;65834;52.364;9.754;2023-03-01T10:29:55;13.83;;;4.77;;
76863;SDS011;65834;52.364;9.754;2023-03-01T10:33:29;10.50;;;4.33;;
76863;SDS011;65834;52.364;9.754;2023-03-01T10:37:08;12.73;;;4.60;;
76863;SDS011;65834;52.364;9.754;2023-03-01T10:40:49;11.73;;;4.17;;
76863;SDS011;65834;52.364;9.754;2023-03-01T10:44:38;14.67;;;4.70;;
76863;SDS011;65834;52.364;9.754;2023-03-01T10:48:11;8.93;;;4.17;;
76863;SDS011;65834;52.364;9.754;2023-03-01T10:51:45;10.07;;;3.27;;
76863;SDS011;65834;52.364;9.754;2023-03-01T10:55:27;10.13;;;3.23;;
76863;SDS011;65834;52.364;9.754;2023-03-01T10:59:00;12.73;;;3.80;;
76863;SDS011;65834;52.364;9.754;2023-03-01T11:02:46;11.50;;;3.57;;
76863;SDS011;65834;52.364;9.754;2023-03-01T11:06:32;11.63;;;3.53;;
76863;SDS011;65834;52.364;9.754;2023-03-01T11:10:19;8.80;;;2.97;;
76863;SDS011;65834;52.364;9.754;2023-03-01T11:13:54;11.33;;;3.30;;
76863;SDS011;65834;52.364;9.754;2023-03-01T11:17:24;10.87;;;3.40;;
76863;SDS011;65834;52.364;9.754;2023-03-01T11:21:12;8.50;;;3.20;;
76863;SDS011;65834;52.364;9.754;2023-03-01T11:24:42;9.53;;;3.80;;
76863;SDS011;65834;52.364;9.754;2023-03-01T11:28:17;12.13;;;3.30;;
76863;SDS011;65834;52.364;9.754;2023-03-01T11:32:06;10.27;;;4.37;;
76863;SDS011;65834;52.364;9.754;2023-03-01T11:35:42;10.43;;;3.70;;
76863;SDS011;65834;52.364;9.754;2023-03-01T11:39:17;9.10;;;3.07;;
76863;SDS011;65834;52.364;9.754;2023-03-01T11:42:57;11.47;;;3.43;;
76863;SDS011;65834;52.364;9.754;2023-03-01T11:50:26;8.20;;;2.85;;
76863;SDS011;65834;52.364;9.754;2023-03-01T11:54:05;9.90;;;3.60;;
76863;SDS011;65834;52.364;9.754;2023-03-01T11:57:51;10.87;;;3.10;;
76863;SDS011;65834;52.364;9.754;2023-03-01T12:01:41;9.23;;;3.23;;
76863;SDS011;65834;52.364;9.754;2023-03-01T12:09:25;10.17;;;3.17;;
76863;SDS011;65834;52.364;9.754;2023-03-01T12:13:05;8.33;;;2.97;;
76863;SDS011;65834;52.364;9.754;2023-03-01T12:17:03;10.20;;;3.70;;
76863;SDS011;65834;52.364;9.754;2023-03-01T12:20:50;11.82;;;3.45;;
76863;SDS011;65834;52.364;9.754;2023-03-01T12:24:41;9.27;;;3.27;;
76863;SDS011;65834;52.364;9.754;2023-03-01T12:28:25;9.57;;;3.27;;
76863;SDS011;65834;52.364;9.754;2023-03-01T12:35:39;8.00;;;3.33;;
76863;SDS011;65834;52.364;9.754;2023-03-01T12:39:24;10.23;;;3.33;;
76863;SDS011;65834;52.364;9.754;2023-03-01T12:43:06;10.50;;;4.07;;
76863;SDS011;65834;52.364;9.754;2023-03-01T12:46:51;8.53;;;3.97;;
76863;SDS011;65834;52.364;9.754;2023-03-01T12:50:28;11.18;;;4.40;;
76863;SDS011;65834;52.364;9.754;2023-03-01T12:54:05;11.77;;;4.00;;
76863;SDS011;65834;52.364;9.754;2023-03-01T12:57:38;12.47;;;3.90;;
76863;SDS011;65834;52.364;9.754;2023-03-01T13:01:18;9.50;;;3.72;;
76863;SDS011;65834;52.364;9.754;2023-03-01T13:04:58;9.43;;;3.60;;
76863;SDS011;65834;52.364;9.754;2023-03-01T13:08:36;10.13;;;3.78;;
76863;SDS011;65834;52.364;9.754;2023-03-01T13:18:33;11.18;;;3.72;;
76863;SDS011;65834;52.364;9.754;2023-03-01T13:21:03;9.05;;;3.42;;
76863;SDS011;65834;52.364;9.754;2023-03-01T13:23:34;9.23;;;3.83;;
76863;SDS011;65834;52.364;9.754;2023-03-01T13:26:08;7.38;;;3.40;;
76863;SDS011;65834;52.364;9.754;2023-03-01T13:28:41;9.98;;;4.00;;
76863;SDS011;65834;52.364;9.754;2023-03-01T13:34:45;10.13;;;4.35;;
76863;SDS011;65834;52.364;9.754;2023-03-01T13:37:26;12.65;;;4.60;;
76863;SDS011;65834;52.364;9.754;2023-03-01T13:39:59;8.52;;;3.78;;
76863;SDS011;65834;52.364;9.754;2023-03-01T13:42:40;10.25;;;4.10;;
76863;SDS011;65834;52.364;9.754;2023-03-01T13:45:27;9.45;;;4.38;;
76863;SDS011;65834;52.364;9.754;2023-03-01T13:48:08;12.13;;;4.93;;
76863;SDS011;65834;52.364;9.754;2023-03-01T13:50:46;9.82;;;4.35;;
76863;SDS011;65834;52.364;9.754;2023-03-01T13:53:20;10.77;;;4.38;;
76863;SDS011;65834;52.364;9.754;2023-03-01T13:55:55;10.48;;;4.65;;
76863;SDS011;65834;52.364;9.754;2023-03-01T13:58:27;11.60;;;5.20;;
76863;SDS011;65834;52.364;9.754;2023-03-01T14:00:59;10.55;;;4.72;;
76863;SDS011;65834;52.364;9.754;2023-03-01T14:03:30;11.05;;;5.30;;
76863;SDS011;65834;52.364;9.754;2023-03-01T14:06:08;10.52;;;5.03;;
76863;SDS011;65834;52.364;9.754;2023-03-01T14:08:46;12.13;;;5.03;;
76863;SDS011;65834;52.364;9.754;2023-03-01T14:11:24;11.55;;;4.53;;
76863;SDS011;65834;52.364;9.754;2023-03-01T14:14:10;11.95;;;4.75;;
76863;SDS011;65834;52.364;9.754;2023-03-01T14:17:12;10.63;;;4.50;;
76863;SDS011;65834;52.364;9.754;2023-03-01T14:19:54;9.30;;;3.93;;
76863;SDS011;65834;52.364;9.754;2023-03-01T14:22:29;10.10;;;3.70;;
76863;SDS011;65834;52.364;9.754;2023-03-01T14:25:03;9.97;;;3.93;;
76863;SDS011;65834;52.364;9.754;2023-03-01T14:27:45;9.75;;;3.90;;
76863;SDS011;65834;52.364;9.754;2023-03-01T14:30:25;11.00;;;3.70;;
76863;SDS011;65834;52.364;9.754;2023-03-01T14:32:58;9.77;;;4.00;;
76863;SDS011;65834;52.364;9.754;2023-03-01T14:35:30;10.33;;;3.60;;
76863;SDS011;65834;52.364;9.754;2023-03-01T14:38:04;11.30;;;3.47;;
76863;SDS011;65834;52.364;9.754;2023-03-01T14:40:35;11.15;;;3.78;;
76863;SDS011;65834;52.364;9.754;2023-03-01T14:43:08;5.57;;;2.58;;
76863;SDS011;65834;52.364;9.754;2023-03-01T14:45:40;9.20;;;2.90;;
76863;SDS011;65834;52.364;9.754;2023-03-01T14:48:17;8.37;;;2.93;;
76863;SDS011;65834;52.364;9.754;2023-03-01T14:50:48;7.87;;;2.70;;
76863;SDS011;65834;52.364;9.754;2023-03-01T14:53:23;8.37;;;3.23;;
76863;SDS011;65834;52.364;9.754;2023-03-01T14:55:55;9.20;;;2.90;;
76863;SDS011;65834;52.364;9.754;2023-03-01T14:58:31;7.77;;;2.77;;
76863;SDS011;65834;52.364;9.754;2023-03-01T15:01:02;6.63;;;2.53;;
76863;SDS011;65834;52.364;9.754;2023-03-01T15:03:35;8.17;;;2.47;;
76863;SDS011;65834;52.364;9.754;2023-03-01T15:06:07;6.93;;;2.60;;
76863;SDS011;65834;52.364;9.754;2023-03-01T15:08:42;8.73;;;2.90;;
76863;SDS011;65834;52.364;9.754;2023-03-01T15:11:19;8.97;;;2.40;;
76863;SDS011;65834;52.364;9.754;2023-03-01T15:13:51;8.57;;;2.90;;
76863;SDS011;65834;52.364;9.754;2023-03-01T15:16:22;8.27;;;2.57;;
76863;SDS011;65834;52.364;9.754;2023-03-01T15:18:55;8.60;;;2.93;;
76863;SDS011;65834;52.364;9.754;2023-03-01T15:21:29;9.33;;;3.27;;
76863;SDS011;65834;52.364;9.754;2023-03-01T15:24:04;8.00;;;2.33;;
76863;SDS011;65834;52.364;9.754;2023-03-01T15:26:49;10.17;;;3.17;;
76863;SDS011;65834;52.364;9.754;2023-03-01T15:29:22;7.63;;;2.87;;
76863;SDS011;65834;52.364;9.754;2023-03-01T15:31:57;7.37;;;2.50;;
76863;SDS011;65834;52.364;9.754;2023-03-01T15:34:30;7.70;;;2.60;;
76863;SDS011;65834;52.364;9.754;2023-03-01T15:37:01;7.73;;;2.73;;
76863;SDS011;65834;52.364;9.754;2023-03-01T15:39:35;9.17;;;2.70;;
76863;SDS011;65834;52.364;9.754;2023-03-01T15:42:08;8.40;;;2.90;;
76863;SDS011;65834;52.364;9.754;2023-03-01T15:44:39;9.10;;;2.67;;
76863;SDS011;65834;52.364;9.754;2023-03-01T15:47:25;6.87;;;2.57;;
76863;SDS011;65834;52.364;9.754;2023-03-01T15:49:58;6.97;;;2.50;;
76863;SDS011;65834;52.364;9.754;2023-03-01T15:52:29;10.67;;;3.23;;
76863;SDS011;65834;52.364;9.754;2023-03-01T15:55:14;9.53;;;2.93;;
76863;SDS011;65834;52.364;9.754;2023-03-01T15:57:47;7.57;;;2.70;;
76863;SDS011;65834;52.364;9.754;2023-03-01T16:00:18;9.97;;;2.97;;
76863;SDS011;65834;52.364;9.754;2023-03-01T16:02:48;6.73;;;2.67;;
76863;SDS011;65834;52.364;9.754;2023-03-01T16:05:19;8.30;;;2.60;;
76863;SDS011;65834;52.364;9.754;2023-03-01T16:07:50;9.80;;;2.75;;
76863;SDS011;65834;52.364;9.754;2023-03-01T16:10:23;5.50;;;2.50;;
76863;SDS011;65834;52.364;9.754;2023-03-01T16:12:53;9.37;;;2.73;;
76863;SDS011;65834;52.364;9.754;2023-03-01T16:15:24;9.07;;;2.63;;
76863;SDS011;65834;52.364;9.754;2023-03-01T16:17:58;6.50;;;2.70;;
76863;SDS011;65834;52.364;9.754;2023-03-01T16:20:28;8.07;;;2.70;;
76863;SDS011;65834;52.364;9.754;2023-03-01T16:23:00;7.73;;;2.43;;
76863;SDS011;65834;52.364;9.754;2023-03-01T16:25:33;9.17;;;2.60;;